Time;durP1;ratioP1;P1;durP2;ratioP2;P2;SDS_P1;SDS_P2;PMS_P1;PMS_P2;Temp;Humidity;BMP_temperature;BMP_pressure;BME280_temperature;BME280_humidity;BME280_pressure;Samples;Min_cycle;Max_cycle;Signal;HPM_P1;HPM_P2
2021/03/03 00:01:18;;;;;;;22.85;13.00;;;;;;;5.44;64.67;100868.63;4966696;28;20042;-70
2021/03/03 00:03:43;;;;;;;24.30;12.40;;;;;;;5.42;65.17;100878.25;4970131;28;20051;-70
2021/03/03 00:06:08;;;;;;;26.13;13.48;;;;;;;5.37;65.62;100879.16;4969301;28;20092;-70
2021/03/03 00:08:34;;;;;;;32.72;13.40;;;;;;;5.36;65.47;100879.16;4970165;28;20125;-71
2021/03/03 00:10:59;;;;;;;29.65;14.05;;;;;;;5.34;65.55;100876.59;4971063;28;20046;-71
2021/03/03 00:13:25;;;;;;;31.45;13.80;;;;;;;5.31;65.74;100879.22;4971169;28;20556;-71
2021/03/03 00:15:50;;;;;;;24.48;12.68;;;;;;;5.29;65.52;100877.50;4971426;28;20107;-71
2021/03/03 00:18:15;;;;;;;20.10;12.38;;;;;;;5.30;65.61;100868.78;4985689;28;20136;-71
2021/03/03 00:20:41;;;;;;;26.30;12.45;;;;;;;5.26;65.65;100878.41;4968434;28;20426;-71
2021/03/03 00:23:06;;;;;;;25.13;12.25;;;;;;;5.25;65.98;100873.19;4960881;28;20043;-70
2021/03/03 00:25:32;;;;;;;34.47;13.63;;;;;;;5.25;65.97;100871.44;4967798;28;20042;-68
2021/03/03 00:27:57;;;;;;;33.30;12.85;;;;;;;5.24;65.90;100874.06;4948111;28;20498;-71
2021/03/03 00:30:23;;;;;;;27.83;13.73;;;;;;;5.22;65.64;100873.22;4951896;28;20131;-71
2021/03/03 00:32:48;;;;;;;22.15;12.00;;;;;;;5.21;66.25;100874.97;4968389;28;20178;-69
2021/03/03 00:35:14;;;;;;;27.25;13.60;;;;;;;5.20;66.02;100873.25;4969554;28;20046;-70
2021/03/03 00:37:39;;;;;;;16.27;9.57;;;;;;;5.22;66.06;100867.97;4968378;28;20782;-70
2021/03/03 00:40:06;;;;;;;27.83;14.27;;;;;;;5.23;66.11;100862.75;4969231;28;20043;-70
2021/03/03 00:42:32;;;;;;;23.05;11.63;;;;;;;5.26;65.77;100862.72;4969525;28;20030;-70
2021/03/03 00:44:57;;;;;;;23.65;13.70;;;;;;;5.28;65.66;100860.09;4968864;28;20586;-70
2021/03/03 00:47:23;;;;;;;22.52;12.57;;;;;;;5.26;65.50;100867.94;4950534;28;20526;-70
2021/03/03 00:49:48;;;;;;;22.90;12.73;;;;;;;5.28;65.97;100865.31;4950533;29;20458;-70
2021/03/03 00:52:13;;;;;;;24.10;11.23;;;;;;;5.34;65.43;100870.47;4949596;28;20527;-70
2021/03/03 00:54:39;;;;;;;18.00;10.40;;;;;;;5.34;65.54;100876.59;4949472;29;20050;-70
2021/03/03 00:57:04;;;;;;;26.52;11.18;;;;;;;5.53;64.91;100874.63;4967696;28;20039;-51
2021/03/03 00:59:30;;;;;;;28.20;14.15;;;;;;;5.75;64.38;100871.78;4972262;28;20035;-70
2021/03/03 01:01:55;;;;;;;22.27;12.48;;;;;;;5.79;64.12;100873.47;4967109;28;20035;-71
2021/03/03 01:04:20;;;;;;;16.92;10.35;;;;;;;5.78;64.26;100871.72;4971679;28;20069;-70
2021/03/03 01:06:46;;;;;;;25.80;12.13;;;;;;;5.77;64.15;100867.41;4972152;28;20031;-70
2021/03/03 01:09:12;;;;;;;18.63;9.63;;;;;;;5.78;63.45;100863.88;4971793;28;20680;-70
2021/03/03 01:11:37;;;;;;;16.15;9.77;;;;;;;5.81;63.48;100869.09;4971932;28;20464;-69
2021/03/03 01:14:02;;;;;;;22.90;10.57;;;;;;;5.86;63.25;100869.00;4972617;28;20043;-70
2021/03/03 01:16:28;;;;;;;17.27;11.13;;;;;;;5.86;63.60;100864.66;4974131;28;20027;-69
2021/03/03 01:18:53;;;;;;;19.50;12.07;;;;;;;5.85;63.74;100862.91;4973693;28;20102;-70
2021/03/03 01:21:18;;;;;;;22.25;10.75;;;;;;;5.83;63.43;100862.06;4967795;28;20459;-69
2021/03/03 01:23:44;;;;;;;24.67;10.35;;;;;;;5.87;63.24;100861.16;4962438;28;20160;-69
2021/03/03 01:26:09;;;;;;;18.25;10.00;;;;;;;5.91;63.20;100864.63;4964455;28;20055;-70
2021/03/03 01:28:34;;;;;;;17.55;10.40;;;;;;;5.92;63.12;100854.09;4966783;28;20069;-69
2021/03/03 01:31:00;;;;;;;15.77;9.95;;;;;;;5.94;63.15;100852.38;4972383;28;20042;-69
2021/03/03 01:33:30;;;;;;;16.10;10.70;;;;;;;6.00;62.76;100854.91;4972092;28;20027;-71
2021/03/03 01:35:56;;;;;;;16.90;10.57;;;;;;;6.08;62.47;100848.69;4971717;28;20042;-69
2021/03/03 01:38:22;;;;;;;26.83;13.25;;;;;;;6.14;62.13;100846.00;4971824;28;20067;-69
2021/03/03 01:40:49;;;;;;;16.00;10.48;;;;;;;6.19;61.88;100838.94;4971596;28;20063;-70
2021/03/03 01:43:14;;;;;;;17.17;10.32;;;;;;;6.25;61.58;100844.09;4971571;28;20061;-70
2021/03/03 01:45:40;;;;;;;16.45;10.63;;;;;;;6.32;61.66;100831.78;4970982;28;20037;-71
2021/03/03 01:48:06;;;;;;;18.70;10.82;;;;;;;6.41;61.23;100839.50;4971257;28;20098;-69
2021/03/03 01:50:32;;;;;;;15.48;10.38;;;;;;;6.49;60.67;100836.75;4971102;28;20085;-70
2021/03/03 01:52:58;;;;;;;17.50;10.43;;;;;;;6.54;60.43;100835.78;4969140;28;20034;-69
2021/03/03 01:55:23;;;;;;;16.95;10.65;;;;;;;6.61;59.76;100828.72;4970927;28;20329;-69
2021/03/03 01:57:51;;;;;;;18.13;10.30;;;;;;;6.74;59.91;100824.97;4971108;28;20122;-69
2021/03/03 02:00:17;;;;;;;16.70;9.27;;;;;;;6.81;59.35;100829.25;4971704;28;20050;-70
2021/03/03 02:02:42;;;;;;;14.65;9.10;;;;;;;6.90;59.51;100816.88;4956845;28;20027;-70
2021/03/03 02:05:09;;;;;;;14.23;8.88;;;;;;;6.91;59.66;100821.22;4970448;28;20499;-69
2021/03/03 02:07:34;;;;;;;15.07;9.80;;;;;;;6.92;59.18;100815.97;4970849;28;20125;-70
2021/03/03 02:10:24;;;;;;;16.75;10.80;;;;;;;7.01;58.76;100818.41;4970928;28;20543;-69
2021/03/03 02:13:05;;;;;;;16.55;9.32;;;;;;;7.13;57.34;100819.94;4983397;28;20030;-70
2021/03/03 02:15:32;;;;;;;19.50;9.90;;;;;;;7.24;57.54;100811.91;4970795;28;20034;-70
2021/03/03 02:18:01;;;;;;;16.50;9.70;;;;;;;7.36;57.51;100813.38;4977307;28;20037;-70
2021/03/03 02:20:31;;;;;;;17.60;9.02;;;;;;;7.43;57.09;100823.75;4951785;29;20036;-70
2021/03/03 02:23:14;;;;;;;15.18;10.38;;;;;;;7.46;56.95;100810.56;4951661;28;20027;-71
2021/03/03 02:25:42;;;;;;;14.43;9.30;;;;;;;7.55;56.23;100804.25;4951010;28;20496;-71
2021/03/03 02:28:10;;;;;;;15.57;9.55;;;;;;;7.61;55.63;100790.16;4952644;28;20034;-69
2021/03/03 02:30:41;;;;;;;15.75;10.10;;;;;;;7.66;55.54;100801.44;4972738;28;20146;-69
2021/03/03 02:33:09;;;;;;;16.17;7.78;;;;;;;7.68;55.50;100797.03;4976382;28;20046;-69
2021/03/03 02:35:35;;;;;;;18.77;9.40;;;;;;;7.76;55.27;100794.22;4984520;28;20034;-71
2021/03/03 02:38:04;;;;;;;17.10;9.00;;;;;;;7.82;54.64;100781.81;4980826;28;20134;-69
2021/03/03 02:40:31;;;;;;;14.98;8.70;;;;;;;7.87;54.13;100787.81;4960760;28;20047;-70
2021/03/03 02:42:57;;;;;;;14.95;10.07;;;;;;;7.92;54.21;100792.97;4977217;28;20034;-70
2021/03/03 02:45:25;;;;;;;16.55;8.82;;;;;;;7.96;53.81;100792.88;4956576;28;20529;-68
2021/03/03 02:47:51;;;;;;;18.23;8.55;;;;;;;8.05;52.88;100783.06;4987655;28;20046;-70
2021/03/03 02:50:17;;;;;;;17.33;10.40;;;;;;;8.14;52.65;100769.72;4990186;28;20129;-69
2021/03/03 02:52:53;;;;;;;16.15;8.57;;;;;;;8.21;52.63;100775.72;4978386;28;20538;-70
2021/03/03 02:55:20;;;;;;;16.83;10.43;;;;;;;8.27;52.39;100776.44;4971351;28;20374;-70
2021/03/03 02:57:46;;;;;;;22.75;9.30;;;;;;;8.28;51.94;100772.91;4971094;28;20038;-71
2021/03/03 03:00:19;;;;;;;13.93;8.05;;;;;;;8.28;52.21;100775.53;4970777;28;20045;-71
2021/03/03 03:02:48;;;;;;;16.02;8.43;;;;;;;8.28;51.29;100780.78;4970559;28;20038;-69
2021/03/03 03:05:16;;;;;;;16.25;7.28;;;;;;;8.27;51.58;100768.56;4970390;28;20132;-68
2021/03/03 03:07:48;;;;;;;20.80;9.75;;;;;;;8.32;50.88;100763.19;4970132;28;20034;-70
2021/03/03 03:10:16;;;;;;;14.77;8.48;;;;;;;8.40;51.17;100768.28;4970343;28;20054;-70
2021/03/03 03:12:45;;;;;;;13.65;7.38;;;;;;;8.46;51.06;100773.38;4970382;28;20062;-70
2021/03/03 03:15:14;;;;;;;13.88;9.25;;;;;;;8.49;50.96;100774.19;4971609;28;20069;-69
2021/03/03 03:17:40;;;;;;;15.40;8.73;;;;;;;8.53;50.54;100767.94;4976456;28;20030;-69
2021/03/03 03:20:08;;;;;;;19.08;8.88;;;;;;;8.59;49.72;100775.69;4987195;28;20034;-70
2021/03/03 03:22:34;;;;;;;31.73;9.57;;;;;;;8.67;49.70;100766.75;4976454;28;20035;-69
2021/03/03 03:25:03;;;;;;;18.15;9.57;;;;;;;8.75;49.26;100770.03;4982639;28;20124;-69
2021/03/03 03:27:30;;;;;;;16.08;8.73;;;;;;;8.80;49.15;100769.00;4988383;28;20610;-69
2021/03/03 03:29:58;;;;;;;18.08;8.32;;;;;;;8.80;49.17;100770.75;4991074;28;20037;-69
2021/03/03 03:32:25;;;;;;;18.85;8.48;;;;;;;8.85;49.13;100778.53;4994514;28;20053;-69
2021/03/03 03:34:50;;;;;;;17.23;8.32;;;;;;;8.86;48.87;100775.88;4976646;28;20038;-69
2021/03/03 03:37:18;;;;;;;16.85;8.60;;;;;;;8.83;50.01;100773.31;4974278;28;20050;-68
2021/03/03 03:39:43;;;;;;;16.95;8.13;;;;;;;8.83;50.10;100768.03;4976146;28;20043;-70
2021/03/03 03:42:10;;;;;;;20.17;9.25;;;;;;;8.80;49.77;100769.00;4976055;28;20037;-71
2021/03/03 03:44:38;;;;;;;25.38;9.57;;;;;;;8.81;50.45;100770.75;4979840;28;20027;-70
2021/03/03 03:47:03;;;;;;;16.35;8.20;;;;;;;8.84;49.86;100779.44;4959522;28;20050;-70
2021/03/03 03:49:31;;;;;;;12.52;7.25;;;;;;;8.84;50.43;100772.41;4957340;28;20441;-71
2021/03/03 03:51:56;;;;;;;11.60;7.25;;;;;;;8.88;49.91;100770.56;4957621;28;20546;-69
2021/03/03 03:54:22;;;;;;;17.50;9.25;;;;;;;8.94;49.27;100776.53;4957878;28;20043;-71
2021/03/03 03:56:47;;;;;;;15.25;9.15;;;;;;;8.99;49.10;100785.16;4957013;28;20038;-71
2021/03/03 03:59:12;;;;;;;22.38;7.93;;;;;;;9.03;49.14;100784.19;4956939;28;20035;-70
2021/03/03 04:01:38;;;;;;;15.73;7.18;;;;;;;9.07;48.78;100782.31;4957122;28;20046;-69
2021/03/03 04:04:03;;;;;;;19.08;8.57;;;;;;;9.11;49.22;100788.38;4956656;28;20524;-70
2021/03/03 04:06:29;;;;;;;15.45;9.18;;;;;;;9.13;49.28;100786.53;4956671;28;20042;-70
2021/03/03 04:08:54;;;;;;;16.95;8.88;;;;;;;9.17;48.35;100788.19;4957099;28;20035;-70
2021/03/03 04:11:19;;;;;;;22.60;9.02;;;;;;;9.16;49.54;100787.34;4959282;28;20031;-71
2021/03/03 04:13:45;;;;;;;19.17;8.77;;;;;;;9.17;48.56;100791.69;4956963;28;20045;-71
2021/03/03 04:16:10;;;;;;;16.13;7.40;;;;;;;9.20;49.43;100791.59;4956219;28;20058;-71
2021/03/03 04:18:35;;;;;;;17.15;9.73;;;;;;;9.24;48.93;100790.59;4959021;28;20035;-72
2021/03/03 04:21:01;;;;;;;18.92;9.10;;;;;;;9.29;49.09;100795.75;4986855;28;20510;-71
2021/03/03 04:23:26;;;;;;;18.65;9.23;;;;;;;9.30;48.67;100792.19;4976609;28;20560;-71
2021/03/03 04:25:51;;;;;;;15.65;9.00;;;;;;;9.32;48.82;100802.69;4986674;28;20038;-70
2021/03/03 04:28:17;;;;;;;18.67;10.00;;;;;;;9.30;48.73;100793.97;4991037;28;20046;-70
2021/03/03 04:30:42;;;;;;;15.85;7.47;;;;;;;9.30;49.58;100807.13;4974646;28;20034;-70
2021/03/03 04:33:08;;;;;;;17.45;9.65;;;;;;;9.30;48.85;100793.97;4991894;28;20041;-69
2021/03/03 04:35:34;;;;;;;16.58;8.18;;;;;;;9.28;48.72;100791.41;4992375;28;20034;-70
2021/03/03 04:37:59;;;;;;;15.25;8.25;;;;;;;9.26;49.03;100797.63;4981886;28;20434;-70
2021/03/03 04:40:25;;;;;;;13.27;6.95;;;;;;;9.24;49.42;100798.50;4973115;28;20057;-70
2021/03/03 04:42:50;;;;;;;14.50;7.85;;;;;;;9.23;49.15;100795.94;4973215;28;20058;-71
2021/03/03 04:45:16;;;;;;;14.48;8.95;;;;;;;9.17;50.02;100798.72;4972374;28;20039;-70
2021/03/03 04:47:41;;;;;;;21.13;10.50;;;;;;;9.13;50.02;100795.31;4972186;28;20045;-69
2021/03/03 04:50:08;;;;;;;15.93;8.38;;;;;;;9.11;49.20;100799.75;4973578;28;20035;-70
2021/03/03 04:52:34;;;;;;;15.80;8.50;;;;;;;9.10;49.90;100784.84;4973211;28;20113;-69
2021/03/03 04:55:00;;;;;;;16.10;9.60;;;;;;;9.07;49.97;100790.22;4973143;28;20434;-70
2021/03/03 04:57:26;;;;;;;16.55;9.98;;;;;;;9.03;49.94;100786.81;4973031;28;20035;-69
2021/03/03 04:59:51;;;;;;;14.85;9.25;;;;;;;9.00;50.86;100788.63;4972308;28;20027;-70
2021/03/03 05:02:16;;;;;;;17.52;8.30;;;;;;;8.93;50.84;100794.97;4955350;28;20038;-70
2021/03/03 05:04:44;;;;;;;19.80;9.93;;;;;;;8.91;51.25;100784.50;4971800;28;20113;-69
2021/03/03 05:07:09;;;;;;;20.50;10.13;;;;;;;8.91;50.51;100786.25;4970677;28;20027;-71
2021/03/03 05:09:34;;;;;;;15.68;8.98;;;;;;;8.89;50.45;100786.31;4972433;28;20027;-70
2021/03/03 05:12:00;;;;;;;19.10;9.57;;;;;;;8.87;50.94;100785.47;4972517;28;20199;-68
2021/03/03 05:14:25;;;;;;;15.98;9.70;;;;;;;8.84;51.29;100785.56;4974942;28;20402;-70
2021/03/03 05:16:50;;;;;;;14.88;9.52;;;;;;;8.81;51.81;100785.63;4964067;28;20117;-70
2021/03/03 05:19:16;;;;;;;17.83;9.48;;;;;;;8.77;51.99;100781.38;4971455;28;20044;-70
2021/03/03 05:21:41;;;;;;;19.50;8.77;;;;;;;8.75;51.68;100777.91;4988222;28;20038;-70
2021/03/03 05:24:07;;;;;;;20.20;9.90;;;;;;;8.72;52.97;100772.75;4977210;28;20041;-70
2021/03/03 05:26:32;;;;;;;21.80;10.18;;;;;;;8.64;52.51;100772.94;4971585;28;20502;-70
2021/03/03 05:28:58;;;;;;;16.50;10.48;;;;;;;8.63;52.43;100771.19;4971088;28;20483;-70
2021/03/03 05:31:23;;;;;;;22.65;10.85;;;;;;;8.65;52.54;100769.41;4971656;28;20035;-70
2021/03/03 05:33:49;;;;;;;16.35;8.60;;;;;;;8.66;52.57;100775.50;4970408;28;20045;-70
2021/03/03 05:36:14;;;;;;;19.48;9.50;;;;;;;8.65;52.91;100773.78;4971468;28;20077;-69
2021/03/03 05:38:41;;;;;;;19.75;9.73;;;;;;;8.64;52.87;100770.31;4971087;28;20046;-70
2021/03/03 05:41:08;;;;;;;17.10;9.57;;;;;;;8.67;52.55;100772.84;4971424;28;20035;-69
2021/03/03 05:43:35;;;;;;;18.83;9.82;;;;;;;8.70;51.79;100770.13;4971536;28;20027;-68
2021/03/03 05:46:02;;;;;;;21.83;11.38;;;;;;;8.73;52.41;100767.41;4971254;28;20134;-70
2021/03/03 05:48:27;;;;;;;19.67;8.90;;;;;;;8.77;51.49;100763.81;4954062;28;20126;-70
2021/03/03 05:50:59;;;;;;;18.50;10.52;;;;;;;8.86;51.80;100759.22;4971371;28;20114;-70
2021/03/03 05:53:26;;;;;;;14.55;8.75;;;;;;;8.87;51.26;100767.06;4955795;28;20130;-71
2021/03/03 05:55:59;;;;;;;19.77;9.48;;;;;;;8.92;50.79;100753.81;4951902;28;20063;-69
2021/03/03 05:58:28;;;;;;;17.20;9.48;;;;;;;8.97;50.71;100755.41;4935187;29;20122;-69
2021/03/03 06:00:57;;;;;;;18.98;11.55;;;;;;;8.98;50.50;100759.78;4951527;28;20082;-71
2021/03/03 06:03:24;;;;;;;25.13;12.23;;;;;;;9.02;51.10;100760.53;4952397;28;20040;-69
2021/03/03 06:05:50;;;;;;;21.15;11.27;;;;;;;9.03;51.04;100762.25;4954271;28;20055;-69
2021/03/03 06:08:17;;;;;;;19.98;8.82;;;;;;;9.05;51.07;100755.19;4951576;28;20097;-70
2021/03/03 06:10:43;;;;;;;22.05;10.63;;;;;;;9.04;51.64;100766.63;4952802;28;20052;-71
2021/03/03 06:13:09;;;;;;;18.10;10.18;;;;;;;8.99;51.99;100769.38;4976897;28;20042;-69
2021/03/03 06:15:34;;;;;;;18.35;9.40;;;;;;;8.98;51.04;100770.28;4990181;28;20113;-69
2021/03/03 06:18:01;;;;;;;18.05;9.35;;;;;;;8.97;52.15;100762.44;4977330;28;20126;-70
2021/03/03 06:20:26;;;;;;;17.48;9.80;;;;;;;8.91;52.19;100767.84;4953860;28;20043;-69
2021/03/03 06:22:52;;;;;;;23.30;10.45;;;;;;;8.93;51.90;100758.16;4974773;28;20042;-70
2021/03/03 06:25:21;;;;;;;17.08;9.98;;;;;;;8.91;51.59;100762.59;4976730;28;20081;-70
2021/03/03 06:27:47;;;;;;;20.33;11.00;;;;;;;8.86;52.83;100765.34;4970561;28;20035;-70
2021/03/03 06:30:15;;;;;;;21.40;10.43;;;;;;;8.82;52.71;100768.97;4970841;28;20071;-70
2021/03/03 06:32:55;;;;;;;24.23;11.30;;;;;;;8.76;53.34;100766.47;4971547;28;20035;-70
2021/03/03 06:35:31;;;;;;;21.70;10.98;;;;;;;8.71;53.53;100766.63;4970915;28;20036;-70
2021/03/03 06:37:57;;;;;;;17.65;10.15;;;;;;;8.64;53.99;100772.94;4972015;28;20130;-70
2021/03/03 06:40:23;;;;;;;24.50;12.45;;;;;;;8.55;53.84;100771.38;4981398;28;20170;-69
2021/03/03 06:42:49;;;;;;;18.80;11.38;;;;;;;8.43;54.62;100771.69;4971385;28;20509;-69
2021/03/03 06:45:34;;;;;;;20.73;10.77;;;;;;;8.38;54.75;100777.03;4983410;28;20117;-70
2021/03/03 06:48:00;;;;;;;30.27;13.70;;;;;;;8.29;55.39;100785.13;4989300;28;20038;-70
2021/03/03 06:50:34;;;;;;;28.45;11.85;;;;;;;8.22;55.11;100780.94;4990573;28;20038;-71
2021/03/03 06:52:59;;;;;;;20.70;10.27;;;;;;;8.17;55.59;100790.66;4989837;28;20034;-71
2021/03/03 06:55:41;;;;;;;21.65;11.57;;;;;;;8.20;56.00;100784.50;4989876;28;20034;-71
2021/03/03 06:58:23;;;;;;;29.25;13.00;;;;;;;8.15;56.39;100795.97;4972151;28;20031;-70
2021/03/03 07:00:48;;;;;;;17.70;10.80;;;;;;;8.21;56.04;100794.09;4969770;28;20043;-71
2021/03/03 07:03:25;;;;;;;17.80;10.27;;;;;;;8.25;55.60;100801.88;4969906;28;20053;-70
2021/03/03 07:05:50;;;;;;;18.58;10.27;;;;;;;8.28;56.20;100801.78;4970119;28;20343;-70
2021/03/03 07:08:16;;;;;;;23.05;11.43;;;;;;;8.32;55.76;100799.97;4970668;28;20030;-71
2021/03/03 07:10:41;;;;;;;21.05;11.48;;;;;;;8.36;55.19;100799.84;4970516;28;20058;-70
2021/03/03 07:13:07;;;;;;;21.33;12.18;;;;;;;8.32;55.26;100799.97;4973769;28;20042;-70
2021/03/03 07:15:32;;;;;;;37.42;13.57;;;;;;;8.36;56.10;100801.59;4980842;28;20161;-70
2021/03/03 07:17:58;;;;;;;25.50;11.73;;;;;;;8.34;56.15;100806.91;4990039;28;20026;-69
2021/03/03 07:20:24;;;;;;;27.20;13.57;;;;;;;8.43;56.03;100805.84;4971942;28;20051;-70
2021/03/03 07:22:51;;;;;;;17.30;10.85;;;;;;;8.43;56.19;100802.38;4969369;28;20050;-69
2021/03/03 07:25:19;;;;;;;26.20;10.80;;;;;;;8.48;55.99;100805.75;4951967;28;20039;-70
2021/03/03 07:27:48;;;;;;;18.05;11.45;;;;;;;8.50;55.85;100809.22;4970703;28;20114;-70
2021/03/03 07:30:13;;;;;;;21.13;12.27;;;;;;;8.59;55.79;100809.00;4970269;28;20391;-72
2021/03/03 07:32:40;;;;;;;23.65;12.43;;;;;;;8.66;55.89;100809.69;4979251;28;20037;-70
2021/03/03 07:35:07;;;;;;;20.60;12.05;;;;;;;8.72;56.03;100810.41;4976273;28;20041;-70
2021/03/03 07:37:51;;;;;;;21.08;12.18;;;;;;;8.80;56.03;100804.94;4951562;28;20184;-71
2021/03/03 07:40:18;;;;;;;22.17;12.40;;;;;;;8.91;55.62;100799.41;4959830;28;20611;-69
2021/03/03 07:42:52;;;;;;;24.02;13.05;;;;;;;9.09;56.29;100803.34;4956856;28;20059;-70
2021/03/03 07:45:18;;;;;;;19.00;12.07;;;;;;;9.15;55.80;100806.63;4961994;28;20042;-70
2021/03/03 07:47:44;;;;;;;22.60;13.30;;;;;;;9.26;55.32;100802.88;4945119;28;20520;-71
2021/03/03 07:50:15;;;;;;;26.70;13.10;;;;;;;9.37;55.59;100806.06;4959029;28;20041;-71
2021/03/03 07:53:01;;;;;;;25.15;12.38;;;;;;;9.53;55.08;100803.88;4948396;28;20031;-72
2021/03/03 07:55:27;;;;;;;21.55;11.48;;;;;;;9.67;54.44;100802.56;4964080;28;20078;-72
2021/03/03 07:57:54;;;;;;;21.50;12.10;;;;;;;9.86;54.55;100807.28;4962280;28;20065;-71
2021/03/03 08:00:19;;;;;;;19.65;10.90;;;;;;;10.00;53.88;100802.47;4970463;28;20046;-70
2021/03/03 08:02:47;;;;;;;30.40;15.30;;;;;;;10.11;54.46;100794.22;4973033;28;20469;-71
2021/03/03 08:05:27;;;;;;;21.20;12.23;;;;;;;10.26;54.06;100800.78;4973246;28;20172;-71
2021/03/03 08:08:34;;;;;;;24.50;12.40;;;;;;;10.46;53.06;100798.41;4959248;28;20035;-69
2021/03/03 08:10:59;;;;;;;25.27;14.35;;;;;;;10.64;53.62;100796.94;4962206;28;20117;-70
2021/03/03 08:13:30;;;;;;;23.25;9.70;;;;;;;10.76;52.68;100798.31;4976835;28;20431;-71
2021/03/03 08:16:00;;;;;;;34.05;14.52;;;;;;;10.86;52.54;100789.16;4967298;28;20676;-70
2021/03/03 08:18:31;;;;;;;27.67;12.13;;;;;;;11.00;52.30;100788.72;4963749;28;20487;-70
2021/03/03 08:20:59;;;;;;;22.27;12.40;;;;;;;11.19;51.76;100791.53;4963752;28;20580;-72
2021/03/03 08:23:33;;;;;;;25.20;13.50;;;;;;;11.44;50.36;100796.78;4962896;28;20487;-73
2021/03/03 08:26:02;;;;;;;23.85;13.93;;;;;;;11.65;50.50;100794.28;4963997;28;20499;-72
2021/03/03 08:28:38;;;;;;;24.40;13.18;;;;;;;11.88;48.57;100794.28;4963246;28;20515;-72
2021/03/03 08:31:07;;;;;;;33.22;14.93;;;;;;;12.08;48.61;100782.94;4966710;28;20035;-72
2021/03/03 08:33:33;;;;;;;22.42;12.45;;;;;;;12.27;47.63;100790.16;4964830;28;20039;-71
2021/03/03 08:35:59;;;;;;;24.33;12.65;;;;;;;12.46;47.50;100794.63;4962377;28;20111;-70
2021/03/03 08:38:24;;;;;;;20.70;11.00;;;;;;;12.71;46.00;100792.78;4964468;28;20130;-71
2021/03/03 08:40:50;;;;;;;133.63;24.65;;;;;;;12.90;44.38;100793.72;4961828;28;20412;-71
2021/03/03 08:43:35;;;;;;;60.80;19.20;;;;;;;13.03;44.14;100791.41;4964439;28;20027;-70
2021/03/03 08:46:20;;;;;;;45.83;14.88;;;;;;;13.18;44.73;100798.66;4955348;28;20041;-70
2021/03/03 08:48:57;;;;;;;38.45;20.63;;;;;;;13.25;42.90;100792.16;4972745;28;20038;-72
2021/03/03 08:51:28;;;;;;;26.88;16.13;;;;;;;13.36;42.02;100793.50;4971817;28;20042;-70
2021/03/03 08:53:55;;;;;;;38.33;15.98;;;;;;;13.49;41.11;100802.66;4973069;28;20090;-70
2021/03/03 08:56:44;;;;;;;29.20;15.45;;;;;;;13.67;41.32;100795.66;4972209;28;20055;-71
2021/03/03 08:59:28;;;;;;;31.55;14.93;;;;;;;13.85;40.95;100796.56;4967054;28;20049;-70
2021/03/03 09:01:53;;;;;;;30.77;16.67;;;;;;;13.92;40.11;100798.84;4965888;28;20126;-71
2021/03/03 09:04:21;;;;;;;33.90;16.95;;;;;;;14.18;39.94;100796.78;4972385;28;20222;-70
2021/03/03 09:06:50;;;;;;;26.75;15.75;;;;;;;14.66;38.96;100798.00;4972628;28;20027;-71
2021/03/03 09:09:17;;;;;;;30.25;16.40;;;;;;;15.11;38.25;100799.25;4972637;28;20031;-71
2021/03/03 09:11:43;;;;;;;26.38;15.43;;;;;;;15.55;36.98;100796.03;4972498;28;20676;-71
2021/03/03 09:14:10;;;;;;;28.77;15.50;;;;;;;15.92;36.39;100799.38;4972894;28;20065;-71
2021/03/03 09:17:00;;;;;;;40.83;17.88;;;;;;;16.34;35.62;100789.91;4989646;28;20030;-71
2021/03/03 09:19:27;;;;;;;27.10;16.33;;;;;;;16.52;35.12;100791.53;4973180;28;20038;-72
2021/03/03 09:21:53;;;;;;;26.73;14.93;;;;;;;16.86;35.22;100786.94;4973880;28;20568;-71
2021/03/03 09:24:19;;;;;;;31.80;16.90;;;;;;;17.19;34.03;100788.50;4972758;28;20038;-70
2021/03/03 09:26:45;;;;;;;34.00;18.52;;;;;;;17.22;33.79;100790.13;4972563;28;20409;-69
2021/03/03 09:29:31;;;;;;;25.45;15.80;;;;;;;17.32;33.85;100788.63;4972023;28;20617;-70
2021/03/03 09:31:57;;;;;;;;;;;;;;;17.53;33.72;100789.13;4953561;28;20093;-70
2021/03/03 09:34:22;;;;;;;39.58;20.15;;;;;;;17.65;33.42;100775.00;4952718;28;20290;-70
2021/03/03 09:37:00;;;;;;;43.28;19.25;;;;;;;17.66;33.10;100776.72;4952545;28;20035;-68
2021/03/03 09:39:26;;;;;;;30.35;17.55;;;;;;;17.81;33.41;100780.25;4952731;28;20039;-70
2021/03/03 09:42:03;;;;;;;29.75;16.50;;;;;;;18.35;32.07;100771.44;4948599;28;20035;-72
2021/03/03 09:44:50;;;;;;;34.15;16.77;;;;;;;18.72;31.68;100777.00;4965728;28;20406;-71
2021/03/03 09:47:39;;;;;;;38.05;22.42;;;;;;;19.21;31.04;100773.69;4970334;28;20047;-70
2021/03/03 09:50:13;;;;;;;53.65;20.85;;;;;;;19.31;31.48;100766.72;4988420;28;20398;-71
2021/03/03 09:52:38;;;;;;;82.75;22.70;;;;;;;19.41;30.97;100769.59;4973119;28;20041;-72
2021/03/03 09:55:09;;;;;;;58.15;21.55;;;;;;;19.56;30.56;100760.47;4952291;28;20039;-72
2021/03/03 09:57:35;;;;;;;37.70;18.20;;;;;;;19.68;30.07;100765.00;4949363;28;20836;-70
2021/03/03 10:00:01;;;;;;;30.25;17.52;;;;;;;19.94;29.87;100762.28;4962912;28;20141;-72
2021/03/03 10:02:28;;;;;;;59.35;20.77;;;;;;;20.30;29.67;100760.50;4987700;28;20061;-70
2021/03/03 10:04:55;;;;;;;40.40;19.63;;;;;;;20.42;29.29;100758.75;4988423;28;20034;-72
2021/03/03 10:07:23;;;;;;;30.45;17.48;;;;;;;20.36;29.08;100760.91;4953894;28;20042;-70
2021/03/03 10:09:55;;;;;;;34.25;17.67;;;;;;;20.66;28.76;100753.41;4949081;28;20027;-69
2021/03/03 10:12:23;;;;;;;25.80;15.98;;;;;;;20.91;28.78;100749.69;4949184;28;20078;-70
2021/03/03 10:15:08;;;;;;;32.65;16.38;;;;;;;20.92;28.05;100754.06;4948794;28;20031;-70
2021/03/03 10:17:49;;;;;;;32.45;18.60;;;;;;;20.95;27.66;100759.22;4948613;28;20039;-71
2021/03/03 10:20:30;;;;;;;30.92;18.05;;;;;;;20.98;27.03;100759.81;4948727;28;20047;-72
2021/03/03 10:22:58;;;;;;;61.80;21.08;;;;;;;21.14;27.06;100761.28;4963964;28;20050;-69
2021/03/03 10:25:38;;;;;;;28.48;16.80;;;;;;;21.42;26.91;100760.88;4975126;28;20042;-71
2021/03/03 10:28:07;;;;;;;55.25;20.33;;;;;;;21.19;26.77;100759.97;4969457;28;20038;-71
2021/03/03 10:30:34;;;;;;;28.88;19.88;;;;;;;20.99;27.49;100758.84;4967843;28;20043;-73
2021/03/03 10:33:00;;;;;;;34.03;17.77;;;;;;;21.21;26.76;100766.06;4967285;28;20058;-71
2021/03/03 10:35:29;;;;;;;34.42;19.38;;;;;;;21.37;26.67;100767.56;4967454;28;20038;-73
2021/03/03 10:38:08;;;;;;;31.15;17.67;;;;;;;21.40;25.68;100770.88;4967372;28;20877;-69
2021/03/03 10:40:38;;;;;;;26.95;16.83;;;;;;;21.37;26.01;100762.19;4967507;28;20043;-70
2021/03/03 10:43:24;;;;;;;34.38;17.25;;;;;;;21.38;25.81;100756.69;4949804;28;20034;-71
2021/03/03 10:46:11;;;;;;;35.72;18.20;;;;;;;21.20;26.18;100753.63;4966789;28;20540;-70
2021/03/03 10:48:37;;;;;;;39.97;19.27;;;;;;;20.83;26.29;100754.78;4967138;28;20657;-70
2021/03/03 10:51:02;;;;;;;31.33;20.63;;;;;;;20.35;26.78;100752.97;4967707;28;20035;-70
2021/03/03 10:53:51;;;;;;;31.23;19.52;;;;;;;20.11;27.41;100758.34;4967251;28;20090;-71
2021/03/03 10:56:27;;;;;;;34.25;18.88;;;;;;;19.83;27.95;100759.50;4966564;28;20121;-70
2021/03/03 10:58:57;;;;;;;39.50;19.92;;;;;;;19.65;28.26;100745.59;4967220;28;20442;-69
2021/03/03 11:01:23;;;;;;;32.92;18.98;;;;;;;19.58;28.20;100742.50;4967797;28;20043;-71
2021/03/03 11:03:57;;;;;;;33.50;16.92;;;;;;;19.20;29.00;100754.13;4967998;28;20046;-71
2021/03/03 11:06:29;;;;;;;35.40;19.55;;;;;;;18.98;29.93;100746.72;4968359;28;20047;-70
2021/03/03 11:31:50;;;;;;;28.17;17.70;;;;;;;18.20;31.60;100731.44;4961290;28;20122;-65
2021/03/03 11:34:15;;;;;;;36.35;18.67;;;;;;;18.21;32.45;100729.63;4939497;28;20055;-66
2021/03/03 11:36:41;;;;;;;23.38;16.15;;;;;;;18.00;32.06;100726.56;4948036;28;20039;-67
2021/03/03 11:39:09;;;;;;;29.77;14.55;;;;;;;17.95;32.78;100718.00;4950983;28;20039;-66
2021/03/03 11:41:37;;;;;;;30.42;14.60;;;;;;;18.07;31.84;100719.88;4934062;28;20046;-71
2021/03/03 11:44:03;;;;;;;28.05;14.38;;;;;;;18.03;32.11;100719.22;4951992;28;20070;-72
2021/03/03 11:46:28;;;;;;;27.88;14.40;;;;;;;17.95;31.89;100720.69;4933763;28;20043;-72